Wetterdaten: Woche 25.09.17 - 01.10.17 (KW39)
Datum Zeit Temp. A. Feuchte A. Luftdruck Regen Wind Richtung Taupunkt Windchill Windben
25.09.2017 00:00 12,0 C 82 % 1021,2 hPa 0,0 l/m 0,0 km/h N 9,1 C 12,0 C 0,0 km/h
25.09.2017 01:00 12,1 C 82 % 1020,9 hPa 0,0 l/m 0,0 km/h N 9,2 C 12,1 C 0,0 km/h
25.09.2017 02:00 11,8 C 83 % 1020,5 hPa 0,0 l/m 0,0 km/h N 9,0 C 11,8 C 0,0 km/h
25.09.2017 03:00 11,4 C 83 % 1020,3 hPa 0,0 l/m 0,0 km/h N 8,6 C 11,4 C 0,4 km/h
25.09.2017 04:00 10,3 C 83 % 1020,5 hPa 0,0 l/m 0,0 km/h N 7,6 C 10,3 C 0,0 km/h
25.09.2017 05:00 10,0 C 83 % 1020,5 hPa 0,0 l/m 0,0 km/h N 7,2 C 10,0 C 0,0 km/h
25.09.2017 06:00 9,6 C 83 % 1020,4 hPa 0,0 l/m 0,0 km/h N 6,9 C 9,6 C 0,0 km/h
25.09.2017 07:00 9,4 C 83 % 1021,0 hPa 0,0 l/m 0,0 km/h N 6,7 C 9,4 C 0,0 km/h
25.09.2017 08:00 10,1 C 83 % 1021,3 hPa 0,0 l/m 0,0 km/h N 7,4 C 10,1 C 0,0 km/h
25.09.2017 09:00 11,8 C 84 % 1021,5 hPa 0,0 l/m 0,0 km/h N 9,1 C 11,8 C 0,8 km/h
25.09.2017 10:00 13,8 C 83 % 1021,6 hPa 0,0 l/m 0,0 km/h N 11,0 C 13,8 C 1,6 km/h
25.09.2017 11:00 15,2 C 82 % 1021,5 hPa 0,0 l/m 0,2 km/h N 12,2 C 15,2 C 3,2 km/h
25.09.2017 12:00 16,6 C 76 % 1021,6 hPa 0,0 l/m 0,4 km/h N 12,3 C 16,6 C 4,8 km/h
25.09.2017 13:00 16,6 C 74 % 1021,5 hPa 0,0 l/m 0,6 km/h N 11,9 C 16,6 C 5,6 km/h
25.09.2017 14:00 17,3 C 70 % 1021,5 hPa 0,0 l/m 0,4 km/h N 11,6 C 17,3 C 8,0 km/h
25.09.2017 15:00 17,6 C 67 % 1021,4 hPa 0,0 l/m 0,8 km/h N 11,3 C 17,6 C 7,2 km/h
25.09.2017 16:00 17,3 C 67 % 1021,4 hPa 0,0 l/m 0,8 km/h N 11,1 C 17,3 C 6,8 km/h
25.09.2017 17:00 17,3 C 66 % 1021,6 hPa 0,0 l/m 0,3 km/h N 10,9 C 17,3 C 3,2 km/h
25.09.2017 18:00 16,8 C 67 % 1021,8 hPa 0,0 l/m 0,2 km/h N 10,5 C 16,8 C 2,8 km/h
25.09.2017 19:00 15,4 C 71 % 1022,2 hPa 0,0 l/m 0,0 km/h N 10,2 C 15,4 C 0,4 km/h
25.09.2017 20:00 13,0 C 76 % 1022,6 hPa 0,0 l/m 0,0 km/h N 8,9 C 13,0 C 0,0 km/h
25.09.2017 21:00 11,2 C 80 % 1022,8 hPa 0,0 l/m 0,0 km/h N 7,9 C 11,2 C 0,0 km/h
25.09.2017 22:00 10,1 C 82 % 1022,9 hPa 0,0 l/m 0,0 km/h N 7,1 C 10,1 C 0,0 km/h
25.09.2017 23:00 9,3 C 83 % 1022,8 hPa 0,0 l/m 0,0 km/h N 6,5 C 9,3 C 0,0 km/h
26.09.2017 00:00 8,9 C 83 % 1022,8 hPa 0,0 l/m 0,0 km/h N 6,2 C 8,9 C 0,0 km/h
26.09.2017 01:00 9,4 C 83 % 1022,8 hPa 0,0 l/m 0,0 km/h N 6,6 C 9,4 C 0,0 km/h
26.09.2017 02:00 9,7 C 83 % 1022,8 hPa 0,0 l/m 0,0 km/h N 7,0 C 9,7 C 0,0 km/h
26.09.2017 03:00 10,0 C 83 % 1022,6 hPa 0,0 l/m 0,0 km/h N 7,2 C 10,0 C 0,0 km/h
26.09.2017 04:00 10,1 C 83 % 1022,6 hPa 0,0 l/m 0,0 km/h N 7,4 C 10,1 C 0,0 km/h
26.09.2017 05:00 10,1 C 83 % 1022,8 hPa 0,0 l/m 0,0 km/h N 7,3 C 10,1 C 0,0 km/h
26.09.2017 06:00 10,3 C 83 % 1023,0 hPa 0,0 l/m 0,0 km/h N 7,5 C 10,3 C 0,0 km/h
26.09.2017 07:00 10,6 C 83 % 1023,4 hPa 0,0 l/m 0,0 km/h N 7,9 C 10,6 C 0,0 km/h
26.09.2017 08:00 11,6 C 84 % 1023,9 hPa 0,0 l/m 0,0 km/h N 8,9 C 11,6 C 0,0 km/h
26.09.2017 09:00 12,7 C 83 % 1024,3 hPa 0,0 l/m 0,0 km/h N 9,9 C 12,7 C 0,0 km/h
26.09.2017 10:00 13,5 C 83 % 1024,5 hPa 0,0 l/m 0,0 km/h N 10,7 C 13,5 C 2,4 km/h
26.09.2017 11:00 14,6 C 83 % 1024,6 hPa 0,0 l/m 0,2 km/h N 11,8 C 14,6 C 4,0 km/h
26.09.2017 12:00 16,3 C 81 % 1024,4 hPa 0,0 l/m 0,3 km/h N 13,0 C 16,3 C 4,8 km/h
26.09.2017 13:00 17,9 C 75 % 1024,1 hPa 0,0 l/m 0,4 km/h N 13,5 C 17,9 C 5,6 km/h
26.09.2017 14:00 19,2 C 70 % 1023,7 hPa 0,0 l/m 0,2 km/h N 13,5 C 19,2 C 3,6 km/h
26.09.2017 15:00 19,8 C 66 % 1023,2 hPa 0,0 l/m 0,3 km/h N 13,3 C 19,8 C 6,0 km/h
26.09.2017 16:00 19,6 C 67 % 1023,2 hPa 0,0 l/m 0,0 km/h N 13,2 C 19,6 C 1,6 km/h
26.09.2017 17:00 19,0 C 68 % 1023,4 hPa 0,0 l/m 0,1 km/h N 12,8 C 19,0 C 4,8 km/h
26.09.2017 18:00 18,0 C 70 % 1023,6 hPa 0,0 l/m 0,0 km/h N 12,4 C 18,0 C 0,0 km/h
26.09.2017 19:00 16,0 C 76 % 1024,0 hPa 0,0 l/m 0,0 km/h N 11,7 C 16,0 C 0,0 km/h
26.09.2017 20:00 14,3 C 80 % 1024,4 hPa 0,0 l/m 0,0 km/h N 10,8 C 14,3 C 0,0 km/h
26.09.2017 21:00 13,0 C 82 % 1024,6 hPa 0,0 l/m 0,0 km/h N 10,0 C 13,0 C 0,0 km/h
26.09.2017 22:00 12,5 C 82 % 1024,7 hPa 0,0 l/m 0,0 km/h N 9,5 C 12,5 C 0,4 km/h
26.09.2017 23:00 12,3 C 82 % 1024,5 hPa 0,0 l/m 0,0 km/h N 9,3 C 12,3 C 0,4 km/h
27.09.2017 00:00 12,1 C 83 % 1024,4 hPa 0,0 l/m 0,0 km/h N 9,2 C 12,1 C 0,4 km/h
27.09.2017 01:00 11,8 C 83 % 1024,4 hPa 0,0 l/m 0,0 km/h N 9,0 C 11,8 C 0,8 km/h
27.09.2017 02:00 11,4 C 83 % 1024,5 hPa 0,0 l/m 0,0 km/h N 8,6 C 11,4 C 0,0 km/h
27.09.2017 03:00 10,6 C 83 % 1024,3 hPa 0,0 l/m 0,0 km/h N 7,9 C 10,6 C 0,4 km/h
27.09.2017 04:00 10,2 C 83 % 1024,4 hPa 0,0 l/m 0,0 km/h N 7,5 C 10,2 C 0,0 km/h
27.09.2017 05:00 10,0 C 83 % 1024,5 hPa 0,3 l/m 0,0 km/h N 7,2 C 10,0 C 0,0 km/h
27.09.2017 06:00 9,6 C 83 % 1024,7 hPa 0,0 l/m 0,0 km/h N 6,9 C 9,6 C 0,0 km/h
27.09.2017 07:00 9,4 C 83 % 1025,2 hPa 0,0 l/m 0,0 km/h N 6,6 C 9,4 C 0,0 km/h
27.09.2017 08:00 10,0 C 84 % 1025,6 hPa 0,0 l/m 0,0 km/h N 7,4 C 10,0 C 0,0 km/h
27.09.2017 09:00 12,0 C 84 % 1025,9 hPa 0,0 l/m 0,0 km/h N 9,4 C 12,0 C 0,4 km/h
27.09.2017 10:00 14,6 C 83 % 1026,1 hPa 0,0 l/m 0,0 km/h N 11,8 C 14,6 C 1,2 km/h
27.09.2017 11:00 16,5 C 82 % 1025,8 hPa 0,0 l/m 0,0 km/h N 13,5 C 16,5 C 2,4 km/h
27.09.2017 12:00 18,0 C 78 % 1025,6 hPa 0,0 l/m 0,0 km/h N 14,0 C 18,0 C 2,0 km/h
27.09.2017 13:00 19,8 C 71 % 1025,3 hPa 0,0 l/m 0,4 km/h N 14,4 C 19,8 C 6,8 km/h
27.09.2017 14:00 19,6 C 72 % 1025,1 hPa 0,0 l/m 0,6 km/h N 14,4 C 19,6 C 6,4 km/h
27.09.2017 15:00 19,0 C 73 % 1025,3 hPa 0,0 l/m 0,4 km/h N 14,1 C 19,0 C 5,2 km/h
27.09.2017 16:00 18,6 C 74 % 1025,2 hPa 0,0 l/m 0,1 km/h N 13,8 C 18,6 C 3,6 km/h
27.09.2017 17:00 18,1 C 76 % 1025,2 hPa 0,0 l/m 0,1 km/h N 13,8 C 18,1 C 3,2 km/h
27.09.2017 18:00 17,6 C 78 % 1025,4 hPa 0,0 l/m 0,0 km/h N 13,6 C 17,6 C 0,0 km/h
27.09.2017 19:00 16,5 C 79 % 1025,7 hPa 0,0 l/m 0,0 km/h N 12,8 C 16,5 C 0,4 km/h
27.09.2017 20:00 15,3 C 81 % 1025,8 hPa 0,0 l/m 0,0 km/h N 12,0 C 15,3 C 0,0 km/h
27.09.2017 21:00 14,5 C 82 % 1025,9 hPa 0,0 l/m 0,0 km/h N 11,4 C 14,5 C 0,0 km/h
27.09.2017 22:00 13,9 C 82 % 1025,8 hPa 0,0 l/m 0,0 km/h N 10,9 C 13,9 C 0,0 km/h
27.09.2017 23:00 13,4 C 82 % 1025,8 hPa 0,0 l/m 0,0 km/h N 10,4 C 13,4 C 0,0 km/h
28.09.2017 00:00 12,9 C 82 % 1025,8 hPa 0,0 l/m 0,0 km/h N 9,9 C 12,9 C 0,0 km/h
28.09.2017 01:00 12,3 C 82 % 1025,9 hPa 0,0 l/m 0,0 km/h N 9,3 C 12,3 C 0,0 km/h
28.09.2017 02:00 12,0 C 83 % 1025,9 hPa 0,0 l/m 0,0 km/h N 9,1 C 12,0 C 0,0 km/h
28.09.2017 03:00 11,7 C 83 % 1025,8 hPa 0,0 l/m 0,0 km/h N 8,9 C 11,7 C 0,0 km/h
28.09.2017 04:00 11,2 C 83 % 1025,7 hPa 0,0 l/m 0,0 km/h N 8,4 C 11,2 C 0,0 km/h
28.09.2017 05:00 10,4 C 83 % 1025,9 hPa 0,0 l/m 0,0 km/h N 7,7 C 10,4 C 0,0 km/h
28.09.2017 06:00 9,6 C 83 % 1026,3 hPa 0,0 l/m 0,0 km/h N 6,8 C 9,6 C 0,0 km/h
28.09.2017 07:00 9,0 C 83 % 1026,9 hPa 0,0 l/m 0,0 km/h N 6,3 C 9,0 C 0,0 km/h
28.09.2017 08:00 10,6 C 84 % 1027,3 hPa 0,0 l/m 0,0 km/h N 7,9 C 10,6 C 0,8 km/h
28.09.2017 09:00 12,8 C 83 % 1027,7 hPa 0,0 l/m 0,0 km/h N 10,0 C 12,8 C 1,6 km/h
28.09.2017 10:00 15,4 C 83 % 1027,7 hPa 0,0 l/m 0,3 km/h N 12,4 C 15,4 C 4,4 km/h
28.09.2017 11:00 19,2 C 67 % 1027,2 hPa 0,0 l/m 1,6 km/h N 12,7 C 19,2 C 10,9 km/h
28.09.2017 12:00 21,1 C 53 % 1027,1 hPa 0,0 l/m 2,8 km/h N 11,0 C 21,1 C 12,1 km/h
28.09.2017 13:00 21,8 C 51 % 1026,7 hPa 0,0 l/m 2,3 km/h N 11,0 C 21,8 C 12,5 km/h
28.09.2017 14:00 21,8 C 50 % 1026,3 hPa 0,0 l/m 1,5 km/h N 10,9 C 21,8 C 10,1 km/h
28.09.2017 15:00 21,4 C 49 % 1026,2 hPa 0,0 l/m 2,5 km/h N 10,1 C 21,4 C 12,5 km/h
28.09.2017 16:00 20,7 C 50 % 1026,2 hPa 0,0 l/m 1,3 km/h N 9,7 C 20,7 C 8,0 km/h
28.09.2017 17:00 19,8 C 53 % 1026,2 hPa 0,0 l/m 0,9 km/h N 9,9 C 19,8 C 7,2 km/h
28.09.2017 18:00 18,4 C 57 % 1026,6 hPa 0,0 l/m 0,1 km/h N 9,7 C 18,4 C 2,4 km/h
28.09.2017 19:00 16,5 C 63 % 1027,1 hPa 0,0 l/m 0,0 km/h N 9,4 C 16,5 C 0,4 km/h
28.09.2017 20:00 14,0 C 71 % 1027,5 hPa 0,0 l/m 0,0 km/h N 8,8 C 14,0 C 0,0 km/h
28.09.2017 21:00 12,0 C 77 % 1027,5 hPa 0,0 l/m 0,0 km/h N 8,0 C 12,0 C 0,4 km/h
28.09.2017 22:00 10,7 C 80 % 1027,4 hPa 0,0 l/m 0,0 km/h N 7,4 C 10,7 C 0,0 km/h
28.09.2017 23:00 9,8 C 82 % 1027,1 hPa 0,0 l/m 0,0 km/h N 6,8 C 9,8 C 0,0 km/h
29.09.2017 00:00 9,0 C 82 % 1026,8 hPa 0,0 l/m 0,0 km/h N 6,1 C 9,0 C 0,0 km/h
29.09.2017 01:00 8,3 C 83 % 1026,5 hPa 0,0 l/m 0,0 km/h N 5,6 C 8,3 C 0,0 km/h
29.09.2017 02:00 7,8 C 83 % 1026,2 hPa 0,0 l/m 0,0 km/h N 5,0 C 7,8 C 0,4 km/h
29.09.2017 03:00 7,3 C 83 % 1026,2 hPa 0,0 l/m 0,0 km/h N 4,6 C 7,3 C 0,0 km/h
29.09.2017 04:00 6,8 C 83 % 1026,1 hPa 0,0 l/m 0,0 km/h N 4,1 C 6,8 C 0,0 km/h
29.09.2017 05:00 6,4 C 83 % 1026,1 hPa 0,0 l/m 0,0 km/h N 3,7 C 6,4 C 0,0 km/h
29.09.2017 06:00 6,0 C 83 % 1026,2 hPa 0,0 l/m 0,0 km/h N 3,4 C 6,0 C 0,0 km/h
29.09.2017 07:00 5,8 C 83 % 1026,7 hPa 0,3 l/m 0,0 km/h N 3,2 C 5,8 C 0,0 km/h
29.09.2017 08:00 7,3 C 84 % 1027,0 hPa 0,0 l/m 0,0 km/h N 4,8 C 7,3 C 0,0 km/h
29.09.2017 09:00 10,1 C 84 % 1027,1 hPa 0,0 l/m 0,0 km/h N 7,5 C 10,1 C 0,8 km/h
29.09.2017 10:00 13,2 C 83 % 1026,8 hPa 0,0 l/m 0,1 km/h N 10,3 C 13,2 C 2,0 km/h
29.09.2017 11:00 17,1 C 73 % 1026,0 hPa 0,0 l/m 0,5 km/h N 12,1 C 17,1 C 6,4 km/h
29.09.2017 12:00 19,6 C 59 % 1025,4 hPa 0,0 l/m 1,8 km/h N 11,2 C 19,6 C 8,9 km/h
29.09.2017 13:00 20,0 C 56 % 1025,0 hPa 0,0 l/m 2,1 km/h N 10,8 C 20,0 C 9,3 km/h
29.09.2017 14:00 19,9 C 56 % 1024,6 hPa 0,0 l/m 1,8 km/h N 10,8 C 19,9 C 10,5 km/h
29.09.2017 15:00 19,6 C 55 % 1024,3 hPa 0,0 l/m 1,6 km/h N 10,1 C 19,6 C 10,9 km/h
29.09.2017 16:00 19,0 C 55 % 1024,1 hPa 0,0 l/m 1,0 km/h N 9,6 C 19,0 C 7,6 km/h
29.09.2017 17:00 18,3 C 55 % 1024,1 hPa 0,0 l/m 0,5 km/h N 9,1 C 18,3 C 6,0 km/h
29.09.2017 18:00 17,1 C 58 % 1024,1 hPa 0,0 l/m 0,1 km/h N 8,7 C 17,1 C 2,0 km/h
29.09.2017 19:00 15,2 C 64 % 1024,4 hPa 0,0 l/m 0,0 km/h N 8,4 C 15,2 C 0,8 km/h
29.09.2017 20:00 13,0 C 70 % 1024,5 hPa 0,0 l/m 0,0 km/h N 7,8 C 13,0 C 0,0 km/h
29.09.2017 21:00 10,9 C 77 % 1024,6 hPa 0,0 l/m 0,0 km/h N 7,0 C 10,9 C 0,4 km/h
29.09.2017 22:00 9,4 C 80 % 1024,3 hPa 0,0 l/m 0,0 km/h N 6,2 C 9,4 C 0,0 km/h
29.09.2017 23:00 8,5 C 82 % 1024,0 hPa 0,0 l/m 0,0 km/h N 5,6 C 8,5 C 0,0 km/h
30.09.2017 00:00 7,8 C 83 % 1023,7 hPa 0,0 l/m 0,0 km/h N 5,0 C 7,8 C 0,0 km/h
30.09.2017 01:00 7,0 C 83 % 1023,4 hPa 0,0 l/m 0,0 km/h N 4,3 C 7,0 C 0,0 km/h
30.09.2017 02:00 6,6 C 83 % 1023,0 hPa 0,0 l/m 0,0 km/h N 3,9 C 6,6 C 0,0 km/h
30.09.2017 03:00 6,2 C 83 % 1022,8 hPa 0,0 l/m 0,0 km/h N 3,5 C 6,2 C 0,0 km/h
30.09.2017 04:00 5,8 C 83 % 1022,7 hPa 0,0 l/m 0,0 km/h N 3,2 C 5,8 C 0,0 km/h
30.09.2017 05:00 5,5 C 83 % 1022,4 hPa 0,0 l/m 0,0 km/h N 2,8 C 5,5 C 0,0 km/h
30.09.2017 06:00 5,2 C 83 % 1022,6 hPa 0,0 l/m 0,0 km/h N 2,6 C 5,2 C 0,0 km/h
30.09.2017 07:00 4,9 C 83 % 1022,8 hPa 0,0 l/m 0,0 km/h N 2,3 C 4,9 C 0,0 km/h
30.09.2017 08:00 6,4 C 84 % 1022,9 hPa 0,0 l/m 0,0 km/h N 3,8 C 6,4 C 0,0 km/h
30.09.2017 09:00 9,0 C 84 % 1022,7 hPa 0,0 l/m 0,1 km/h N 6,5 C 9,0 C 2,4 km/h
30.09.2017 10:00 15,2 C 62 % 1022,2 hPa 0,0 l/m 3,4 km/h N 7,7 C 15,2 C 12,1 km/h
30.09.2017 11:00 17,8 C 48 % 1021,9 hPa 0,0 l/m 4,7 km/h N 6,5 C 17,8 C 16,5 km/h
30.09.2017 12:00 18,7 C 44 % 1021,5 hPa 0,0 l/m 4,5 km/h N 6,3 C 18,7 C 17,7 km/h
30.09.2017 13:00 19,0 C 44 % 1021,1 hPa 0,0 l/m 4,0 km/h N 6,3 C 19,0 C 16,9 km/h
30.09.2017 14:00 18,8 C 45 % 1020,6 hPa 0,0 l/m 4,0 km/h N 6,5 C 18,8 C 15,3 km/h
30.09.2017 15:00 18,5 C 46 % 1020,1 hPa 0,0 l/m 3,9 km/h N 6,6 C 18,5 C 12,1 km/h
30.09.2017 16:00 17,7 C 49 % 1020,0 hPa 0,0 l/m 3,2 km/h N 6,8 C 17,7 C 10,9 km/h
30.09.2017 17:00 16,8 C 50 % 1020,1 hPa 0,0 l/m 2,1 km/h N 6,4 C 16,8 C 13,7 km/h
30.09.2017 18:00 15,6 C 52 % 1020,3 hPa 0,0 l/m 1,5 km/h N 5,9 C 15,6 C 7,2 km/h
30.09.2017 19:00 14,1 C 56 % 1020,3 hPa 0,0 l/m 0,8 km/h N 5,3 C 14,1 C 6,0 km/h
30.09.2017 20:00 13,0 C 59 % 1020,2 hPa 0,0 l/m 0,7 km/h N 5,2 C 13,0 C 6,8 km/h
30.09.2017 21:00 12,6 C 60 % 1020,1 hPa 0,0 l/m 1,4 km/h N 5,1 C 12,6 C 10,1 km/h
30.09.2017 22:00 12,4 C 61 % 1019,8 hPa 0,0 l/m 1,2 km/h N 5,0 C 12,4 C 8,4 km/h
30.09.2017 23:00 12,3 C 60 % 1019,8 hPa 0,0 l/m 1,2 km/h N 4,7 C 12,3 C 9,3 km/h
01.10.2017 00:00 12,0 C 61 % 1019,4 hPa 0,0 l/m 1,1 km/h N 4,6 C 12,0 C 7,6 km/h
01.10.2017 01:00 10,6 C 65 % 1019,3 hPa 0,0 l/m 0,2 km/h N 4,2 C 10,6 C 4,0 km/h
01.10.2017 02:00 8,4 C 73 % 1019,2 hPa 0,0 l/m 0,1 km/h N 3,8 C 8,4 C 2,0 km/h
01.10.2017 03:00 6,9 C 78 % 1019,5 hPa 0,0 l/m 0,1 km/h N 3,3 C 6,9 C 1,6 km/h
01.10.2017 04:00 6,2 C 81 % 1019,6 hPa 0,0 l/m 0,0 km/h N 3,1 C 6,2 C 0,8 km/h
01.10.2017 05:00 6,4 C 81 % 1019,9 hPa 0,0 l/m 0,0 km/h N 3,4 C 6,4 C 0,0 km/h
01.10.2017 06:00 5,3 C 81 % 1020,7 hPa 0,0 l/m 0,0 km/h N 2,4 C 5,3 C 0,0 km/h
01.10.2017 07:00 4,8 C 83 % 1021,4 hPa 0,0 l/m 0,0 km/h N 2,1 C 4,8 C 0,8 km/h
01.10.2017 08:00 6,4 C 83 % 1021,8 hPa 0,0 l/m 0,3 km/h N 3,8 C 6,4 C 4,4 km/h
01.10.2017 09:00 10,7 C 73 % 1022,1 hPa 0,0 l/m 0,7 km/h N 6,1 C 10,7 C 5,6 km/h
01.10.2017 10:00 13,9 C 60 % 1022,1 hPa 0,0 l/m 1,0 km/h N 6,1 C 13,9 C 7,2 km/h
01.10.2017 11:00 16,3 C 50 % 1022,1 hPa 0,0 l/m 2,2 km/h N 5,9 C 16,3 C 13,3 km/h
01.10.2017 12:00 17,8 C 46 % 1022,2 hPa 0,0 l/m 2,0 km/h N 6,0 C 17,8 C 9,6 km/h
01.10.2017 13:00 18,4 C 45 % 1022,4 hPa 0,0 l/m 2,6 km/h N 6,1 C 18,4 C 11,3 km/h
01.10.2017 14:00 18,5 C 43 % 1022,3 hPa 0,0 l/m 2,5 km/h N 5,8 C 18,5 C 12,5 km/h
01.10.2017 15:00 18,3 C 43 % 1022,4 hPa 0,0 l/m 1,7 km/h N 5,4 C 18,3 C 7,6 km/h
01.10.2017 16:00 17,8 C 44 % 1022,4 hPa 0,0 l/m 1,5 km/h N 5,3 C 17,8 C 9,3 km/h
01.10.2017 17:00 17,0 C 45 % 1022,5 hPa 0,0 l/m 0,6 km/h N 4,8 C 17,0 C 6,4 km/h
01.10.2017 18:00 15,9 C 50 % 1022,9 hPa 0,0 l/m 0,2 km/h N 5,4 C 15,9 C 4,8 km/h
01.10.2017 19:00 14,0 C 57 % 1023,3 hPa 0,0 l/m 0,0 km/h N 5,5 C 14,0 C 0,0 km/h
01.10.2017 20:00 11,1 C 65 % 1023,8 hPa 0,0 l/m 0,0 km/h N 4,6 C 11,1 C 0,0 km/h
01.10.2017 21:00 8,7 C 74 % 1024,1 hPa 0,0 l/m 0,0 km/h N 4,3 C 8,7 C 0,0 km/h
01.10.2017 22:00 7,4 C 79 % 1024,1 hPa 0,0 l/m 0,0 km/h N 4,0 C 7,4 C 0,0 km/h
01.10.2017 23:00 6,8 C 81 % 1024,2 hPa 0,0 l/m 0,0 km/h N 3,8 C 6,8 C 0,0 km/h
Min-Datum _ 30.09.17 01.10.17 01.10.17 - 25.09.17 - 01.10.17 01.10.17 25.09.17
_ Min-Zeit 07:30 14:30 01:30 - 00:00 - 07:15 07:15 00:00
Minimum _ 4,8 C 42 % 1019,2 hPa - 0,0 km/h - 2,0 C 4,8 C 0,0 km/h
Max-Datum _ 28.09.17 25.09.17 28.09.17 27.09.17 30.09.17 - 27.09.17 28.09.17 30.09.17
_ Max-Zeit 13:15 09:15 09:45 05:30 11:30 - 13:30 13:15 13:45
Maximum _ 21,8 C 84 % 1027,8 hPa 0,3 l/m 5,6 km/h
N
- 14,8 C 21,8 C 25,7 km/h
N
Durchschnitt _ 13,1 C 73 % 1023,7 hPa #0,5 l/m 0,5 km/h N 8,1 C 13,1 C 3,2 km/h